Time;durP1;ratioP1;P1;durP2;ratioP2;P2;SDS_P1;SDS_P2;PMS_P1;PMS_P2;Temp;Humidity;BMP_temperature;BMP_pressure;BME280_temperature;BME280_humidity;BME280_pressure;Samples;Min_cycle;Max_cycle;Signal;HPM_P1;HPM_P2
2022/10/07 00:00:46;;;;;;;8.00;4.13;;;;;;;;;;5056518;28;20139;-87
2022/10/07 00:03:14;;;;;;;15.80;4.65;;;;;;;;;;5056545;28;20045;-87
2022/10/07 00:05:42;;;;;;;8.90;4.55;;;;;;;;;;5055746;28;20128;-87
2022/10/07 00:08:09;;;;;;;4.95;3.67;;;;;;;;;;5073814;28;20092;-87
2022/10/07 00:10:38;;;;;;;8.38;5.28;;;;;;;;;;5055845;28;20103;-87
2022/10/07 00:13:06;;;;;;;12.43;4.15;;;;;;;;;;5055877;28;20091;-87
2022/10/07 00:15:34;;;;;;;5.95;3.88;;;;;;;;;;5056016;28;20390;-88
2022/10/07 00:18:01;;;;;;;7.07;4.05;;;;;;;;;;5073474;28;20084;-88
2022/10/07 00:20:29;;;;;;;8.68;4.00;;;;;;;;;;5056211;28;20548;-87
2022/10/07 00:22:56;;;;;;;7.75;4.13;;;;;;;;;;5056102;28;20088;-87
2022/10/07 00:25:24;;;;;;;5.25;3.97;;;;;;;;;;5056234;28;20109;-88
2022/10/07 00:27:52;;;;;;;5.95;3.40;;;;;;;;;;5073693;28;20090;-87
2022/10/07 00:30:19;;;;;;;5.60;3.80;;;;;;;;;;5056354;28;20589;-87
2022/10/07 00:32:46;;;;;;;4.45;3.40;;;;;;;;;;5056022;28;20472;-87
2022/10/07 00:35:14;;;;;;;6.45;3.50;;;;;;;;;;5056339;28;20084;-88
2022/10/07 00:37:41;;;;;;;8.02;3.85;;;;;;;;;;5055901;28;20055;-87
2022/10/07 00:40:11;;;;;;;12.18;3.72;;;;;;;;;;5056226;28;20094;-87
2022/10/07 00:42:39;;;;;;;9.68;3.90;;;;;;;;;;5055966;28;20044;-88
2022/10/07 00:45:16;;;;;;;6.70;3.92;;;;;;;;;;5055088;28;20064;-87
2022/10/07 00:47:46;;;;;;;7.18;4.00;;;;;;;;;;5056154;28;20489;-87
2022/10/07 00:50:17;;;;;;;6.47;4.13;;;;;;;;;;5073642;28;20055;-88
2022/10/07 00:52:48;;;;;;;8.43;4.38;;;;;;;;;;5055397;28;20135;-87
2022/10/07 00:55:17;;;;;;;8.23;3.67;;;;;;;;;;5073347;28;20472;-88
2022/10/07 00:57:46;;;;;;;8.85;4.20;;;;;;;;;;5073239;28;20499;-87
2022/10/07 01:00:14;;;;;;;6.00;3.63;;;;;;;;;;5073522;28;20583;-88
2022/10/07 01:02:41;;;;;;;6.88;3.80;;;;;;;;;;5073067;28;20048;-88
2022/10/07 01:05:09;;;;;;;8.07;3.90;;;;;;;;;;5058178;28;20048;-87
2022/10/07 01:07:37;;;;;;;7.50;4.35;;;;;;;;;;5077574;28;20055;-88
2022/10/07 01:10:05;;;;;;;7.85;3.72;;;;;;;;;;5059259;28;20045;-88
2022/10/07 01:12:46;;;;;;;5.60;3.45;;;;;;;;;;5059486;28;20044;-88
2022/10/07 01:15:23;;;;;;;6.65;4.10;;;;;;;;;;5077347;28;20492;-88
2022/10/07 01:18:06;;;;;;;9.13;3.83;;;;;;;;;;5059291;28;20053;-87
2022/10/07 01:20:36;;;;;;;5.32;3.50;;;;;;;;;;5059227;28;20052;-88
2022/10/07 01:23:21;;;;;;;12.82;3.35;;;;;;;;;;5059142;28;20048;-88
2022/10/07 01:26:10;;;;;;;6.13;3.75;;;;;;;;;;5059336;28;20064;-88
2022/10/07 01:28:38;;;;;;;4.25;2.97;;;;;;;;;;5059193;28;20051;-88
2022/10/07 01:31:07;;;;;;;7.65;3.00;;;;;;;;;;5059328;28;20044;-88
2022/10/07 01:33:34;;;;;;;6.35;3.53;;;;;;;;;;5059201;28;20088;-88
2022/10/07 01:36:10;;;;;;;4.93;3.60;;;;;;;;;;5059085;28;20049;-88
2022/10/07 01:38:41;;;;;;;6.85;3.38;;;;;;;;;;5076910;28;20052;-88
2022/10/07 01:41:10;;;;;;;9.23;3.75;;;;;;;;;;5059189;28;20428;-88
2022/10/07 01:43:38;;;;;;;5.30;3.05;;;;;;;;;;5059073;28;20056;-88
2022/10/07 01:46:07;;;;;;;7.22;3.72;;;;;;;;;;5058362;28;20052;-88
2022/10/07 01:48:35;;;;;;;9.82;3.58;;;;;;;;;;5058940;28;20048;-88
2022/10/07 01:51:02;;;;;;;6.10;3.55;;;;;;;;;;5076493;28;20420;-88
2022/10/07 01:53:35;;;;;;;5.32;3.45;;;;;;;;;;5058505;28;20492;-88
2022/10/07 01:56:02;;;;;;;10.50;3.63;;;;;;;;;;5075999;28;20056;-88
2022/10/07 01:58:38;;;;;;;6.55;3.80;;;;;;;;;;5058794;28;20052;-88
2022/10/07 02:01:05;;;;;;;6.32;3.55;;;;;;;;;;5075083;28;20056;-88
2022/10/07 02:03:42;;;;;;;10.98;3.50;;;;;;;;;;5076083;28;20056;-88
2022/10/07 02:06:09;;;;;;;8.35;3.13;;;;;;;;;;5058232;28;20497;-88
2022/10/07 02:08:39;;;;;;;7.65;3.53;;;;;;;;;;5058058;28;20048;-89
2022/10/07 02:11:06;;;;;;;8.98;3.78;;;;;;;;;;5058222;28;20044;-88
2022/10/07 02:13:33;;;;;;;11.65;4.43;;;;;;;;;;5076021;28;20052;-88
2022/10/07 02:16:18;;;;;;;7.95;4.13;;;;;;;;;;5075770;28;20056;-89
2022/10/07 02:18:48;;;;;;;4.00;3.60;;;;;;;;;;5058381;28;20060;-89
2022/10/07 02:21:17;;;;;;;7.00;4.10;;;;;;;;;;5075943;28;20178;-88
2022/10/07 02:23:45;;;;;;;6.95;4.13;;;;;;;;;;5058619;28;20048;-87
2022/10/07 02:26:14;;;;;;;7.95;4.13;;;;;;;;;;5075278;28;20072;-88
2022/10/07 02:28:42;;;;;;;8.35;3.83;;;;;;;;;;5058038;28;20049;-88
2022/10/07 02:31:10;;;;;;;7.90;3.60;;;;;;;;;;5075576;28;20622;-88
2022/10/07 02:33:39;;;;;;;10.60;4.43;;;;;;;;;;5057944;28;20048;-88
2022/10/07 02:36:15;;;;;;;6.80;4.00;;;;;;;;;;5057725;28;20045;-89
2022/10/07 02:38:43;;;;;;;8.60;4.32;;;;;;;;;;5057667;28;20044;-89
2022/10/07 02:41:30;;;;;;;9.73;3.45;;;;;;;;;;5057951;28;20044;-89
2022/10/07 02:44:17;;;;;;;6.28;3.63;;;;;;;;;;5057482;28;20048;-88
2022/10/07 02:46:53;;;;;;;5.93;3.50;;;;;;;;;;5075270;28;20136;-89
2022/10/07 02:49:22;;;;;;;5.50;3.55;;;;;;;;;;5075376;28;20044;-89
2022/10/07 02:52:01;;;;;;;8.85;3.85;;;;;;;;;;5057769;28;20048;-89
2022/10/07 02:54:37;;;;;;;5.20;3.60;;;;;;;;;;5074586;28;20071;-89
2022/10/07 02:57:05;;;;;;;11.65;3.70;;;;;;;;;;5057595;28;20052;-89
2022/10/07 02:59:36;;;;;;;10.57;3.55;;;;;;;;;;5058090;28;20049;-89
2022/10/07 03:02:05;;;;;;;7.57;4.18;;;;;;;;;;5057289;28;20140;-88
2022/10/07 03:04:33;;;;;;;8.52;4.00;;;;;;;;;;5074916;28;20108;-89
2022/10/07 03:07:00;;;;;;;8.07;3.45;;;;;;;;;;5057163;28;20056;-89
2022/10/07 03:09:28;;;;;;;5.65;3.65;;;;;;;;;;5057500;28;20499;-89
2022/10/07 03:11:55;;;;;;;4.15;3.03;;;;;;;;;;5057106;28;20048;-89
2022/10/07 03:14:23;;;;;;;8.13;3.30;;;;;;;;;;5056792;28;20056;-89
2022/10/07 03:16:53;;;;;;;18.42;4.20;;;;;;;;;;5057316;28;20055;-89
2022/10/07 03:19:21;;;;;;;7.28;3.45;;;;;;;;;;5057189;28;20044;-89
2022/10/07 03:21:48;;;;;;;11.02;4.25;;;;;;;;;;5057115;28;20045;-89
2022/10/07 03:24:16;;;;;;;6.25;3.80;;;;;;;;;;5057446;28;20056;-89
2022/10/07 03:26:43;;;;;;;9.82;3.88;;;;;;;;;;5056733;28;20048;-89
2022/10/07 03:29:12;;;;;;;8.38;4.30;;;;;;;;;;5057110;28;20135;-89
2022/10/07 03:31:41;;;;;;;6.47;4.05;;;;;;;;;;5074582;28;20449;-89
2022/10/07 03:34:09;;;;;;;11.75;3.60;;;;;;;;;;5056331;28;20048;-89
2022/10/07 03:36:37;;;;;;;6.15;3.60;;;;;;;;;;5056988;28;20040;-89
2022/10/07 03:39:04;;;;;;;8.18;3.60;;;;;;;;;;5056767;28;20060;-89
2022/10/07 03:41:32;;;;;;;10.93;3.83;;;;;;;;;;5057019;28;20059;-89
2022/10/07 03:43:59;;;;;;;4.45;3.13;;;;;;;;;;5056421;28;20066;-89
2022/10/07 03:46:26;;;;;;;10.07;3.80;;;;;;;;;;5056373;28;20056;-90
2022/10/07 03:48:53;;;;;;;6.40;3.50;;;;;;;;;;5056645;28;20485;-89
2022/10/07 03:51:20;;;;;;;4.03;2.95;;;;;;;;;;5056821;28;20055;-90
2022/10/07 03:53:48;;;;;;;10.85;3.90;;;;;;;;;;5056628;28;20063;-89
2022/10/07 03:56:15;;;;;;;6.63;3.42;;;;;;;;;;5056654;28;20040;-90
2022/10/07 03:58:42;;;;;;;5.93;3.55;;;;;;;;;;5056847;28;20060;-90
2022/10/07 04:01:10;;;;;;;9.43;4.05;;;;;;;;;;5056737;28;20056;-90
2022/10/07 04:03:37;;;;;;;10.35;3.55;;;;;;;;;;5056378;28;20044;-90
2022/10/07 04:06:05;;;;;;;7.72;3.58;;;;;;;;;;5055943;28;20163;-90
2022/10/07 04:08:33;;;;;;;6.68;3.33;;;;;;;;;;5056280;28;20053;-90
2022/10/07 04:11:00;;;;;;;7.40;3.17;;;;;;;;;;5056355;28;20059;-90
2022/10/07 04:13:28;;;;;;;4.05;3.65;;;;;;;;;;5056411;28;20052;-90
2022/10/07 04:15:55;;;;;;;5.95;3.33;;;;;;;;;;5056010;28;20501;-90
2022/10/07 04:18:23;;;;;;;8.85;3.30;;;;;;;;;;5056562;28;20049;-91
2022/10/07 04:20:50;;;;;;;6.38;3.50;;;;;;;;;;5055995;28;20492;-90
2022/10/07 04:23:17;;;;;;;5.45;3.38;;;;;;;;;;5055908;28;20519;-90
2022/10/07 04:25:45;;;;;;;7.07;3.22;;;;;;;;;;5055848;28;20055;-90
2022/10/07 04:28:14;;;;;;;10.00;3.72;;;;;;;;;;5056230;28;20051;-87
2022/10/07 04:30:42;;;;;;;3.53;2.92;;;;;;;;;;5056174;28;20052;-90
2022/10/07 04:33:10;;;;;;;10.75;3.78;;;;;;;;;;5056212;28;20488;-90
2022/10/07 04:35:39;;;;;;;5.90;3.47;;;;;;;;;;5055947;28;20524;-90
2022/10/07 04:38:10;;;;;;;5.30;3.42;;;;;;;;;;5055608;28;20044;-90
2022/10/07 04:40:43;;;;;;;7.30;3.00;;;;;;;;;;5056135;28;20075;-90
2022/10/07 04:43:25;;;;;;;6.97;3.92;;;;;;;;;;5056079;28;20055;-91
2022/10/07 04:45:54;;;;;;;7.45;3.72;;;;;;;;;;5055474;28;20067;-91
2022/10/07 04:48:22;;;;;;;6.78;3.45;;;;;;;;;;5056298;28;20427;-91
2022/10/07 04:50:52;;;;;;;7.53;3.75;;;;;;;;;;5056239;28;20136;-90
2022/10/07 04:53:20;;;;;;;5.75;3.88;;;;;;;;;;5056569;28;20497;-91
2022/10/07 04:55:48;;;;;;;8.18;3.75;;;;;;;;;;5055385;28;20111;-90
2022/10/07 04:58:16;;;;;;;6.40;3.90;;;;;;;;;;5055375;28;20507;-90
2022/10/07 05:00:48;;;;;;;9.00;4.25;;;;;;;;;;5055829;28;20057;-91
2022/10/07 05:03:16;;;;;;;5.65;4.00;;;;;;;;;;5056044;28;20048;-91
2022/10/07 05:05:44;;;;;;;5.97;3.75;;;;;;;;;;5056089;28;20382;-89
2022/10/07 05:08:12;;;;;;;9.63;4.05;;;;;;;;;;5073006;28;20040;-92
2022/10/07 05:10:39;;;;;;;11.95;3.97;;;;;;;;;;5055820;28;20053;-91
2022/10/07 05:13:08;;;;;;;7.90;3.72;;;;;;;;;;5055743;28;20048;-90
2022/10/07 05:15:35;;;;;;;11.32;4.20;;;;;;;;;;5055460;28;20056;-91
2022/10/07 05:18:02;;;;;;;10.90;3.97;;;;;;;;;;5055497;28;20056;-91
2022/10/07 05:20:29;;;;;;;8.23;3.63;;;;;;;;;;5056086;28;20070;-91
2022/10/07 05:22:58;;;;;;;11.38;3.22;;;;;;;;;;5056215;28;20163;-91
2022/10/07 05:25:25;;;;;;;10.32;3.30;;;;;;;;;;5055648;28;20049;-91
2022/10/07 05:27:52;;;;;;;8.00;3.60;;;;;;;;;;5055581;28;20052;-91
2022/10/07 05:30:20;;;;;;;18.02;3.55;;;;;;;;;;5055876;28;20052;-91
2022/10/07 05:32:47;;;;;;;9.15;3.63;;;;;;;;;;5055780;28;20056;-91
2022/10/07 05:35:14;;;;;;;10.00;3.40;;;;;;;;;;5055013;28;20059;-91
2022/10/07 05:37:41;;;;;;;6.30;3.30;;;;;;;;;;5055206;28;20048;-91
2022/10/07 05:40:14;;;;;;;8.02;3.55;;;;;;;;;;5056414;28;20056;-91
2022/10/07 05:42:42;;;;;;;9.35;3.92;;;;;;;;;;5055525;28;20052;-91
2022/10/07 05:45:09;;;;;;;11.38;3.83;;;;;;;;;;5055051;28;20056;-91
2022/10/07 05:47:36;;;;;;;11.82;3.90;;;;;;;;;;5055534;28;20045;-92
2022/10/07 05:50:04;;;;;;;7.30;4.28;;;;;;;;;;5056611;28;20052;-92
2022/10/07 05:52:32;;;;;;;5.70;3.50;;;;;;;;;;5058919;28;20040;-91
2022/10/07 05:54:59;;;;;;;19.02;4.88;;;;;;;;;;5058580;28;20044;-91
2022/10/07 05:57:26;;;;;;;13.45;4.72;;;;;;;;;;5058972;28;20045;-92
2022/10/07 05:59:55;;;;;;;12.93;5.32;;;;;;;;;;5058759;28;20059;-91
2022/10/07 06:02:22;;;;;;;16.58;4.35;;;;;;;;;;5058719;28;20127;-91
2022/10/07 06:04:50;;;;;;;19.45;4.97;;;;;;;;;;5058717;28;20382;-91
2022/10/07 06:07:17;;;;;;;14.02;4.95;;;;;;;;;;5058402;28;20052;-92
2022/10/07 06:15:22;;;;;;;17.92;5.78;;;;;;;;;;5075752;28;20048;-91
2022/10/07 06:17:49;;;;;;;14.55;5.57;;;;;;;;;;5057966;28;20056;-91
2022/10/07 06:20:16;;;;;;;19.70;8.32;;;;;;;;;;5058343;28;20044;-91
2022/10/07 06:22:43;;;;;;;22.92;8.48;;;;;;;;;;5058339;28;20515;-91
2022/10/07 06:25:11;;;;;;;17.25;8.57;;;;;;;;;;5058586;28;20485;-91
2022/10/07 06:27:38;;;;;;;14.23;6.70;;;;;;;;;;5058440;28;20432;-91
2022/10/07 06:30:06;;;;;;;14.02;6.50;;;;;;;;;;5058363;28;20051;-92
2022/10/07 06:32:33;;;;;;;13.07;6.70;;;;;;;;;;5058297;28;20048;-91
2022/10/07 06:35:00;;;;;;;16.80;6.80;;;;;;;;;;5057659;28;20057;-91
2022/10/07 06:37:30;;;;;;;18.27;6.55;;;;;;;;;;5057924;28;20040;-91
2022/10/07 06:39:57;;;;;;;21.05;9.55;;;;;;;;;;5057933;28;20052;-93
2022/10/07 06:42:25;;;;;;;19.77;8.40;;;;;;;;;;5058075;28;20056;-91
2022/10/07 06:44:53;;;;;;;23.02;9.45;;;;;;;;;;5057646;28;20059;-92
2022/10/07 06:47:21;;;;;;;23.75;7.13;;;;;;;;;;5057852;28;20075;-91
2022/10/07 06:49:48;;;;;;;17.08;6.80;;;;;;;;;;5058113;28;20057;-91
2022/10/07 06:52:15;;;;;;;21.05;6.80;;;;;;;;;;5058121;28;20045;-91
2022/10/07 06:54:42;;;;;;;18.60;6.43;;;;;;;;;;5057438;28;20048;-91
2022/10/07 06:57:09;;;;;;;19.40;6.57;;;;;;;;;;5058010;28;20055;-91
2022/10/07 06:59:57;;;;;;;18.48;6.15;;;;;;;;;;5060940;28;20048;-91
2022/10/07 07:02:24;;;;;;;19.45;7.40;;;;;;;;;;5056928;28;20066;-91
2022/10/07 07:04:53;;;;;;;20.65;6.25;;;;;;;;;;5057658;28;20044;-91
2022/10/07 07:07:23;;;;;;;24.63;10.80;;;;;;;;;;5058203;28;20442;-92
2022/10/07 07:09:51;;;;;;;84.95;36.40;;;;;;;;;;5057275;28;20074;-91
2022/10/07 07:12:18;;;;;;;24.88;11.82;;;;;;;;;;5057441;28;20412;-91
2022/10/07 07:14:45;;;;;;;26.17;10.48;;;;;;;;;;5057301;28;20049;-90
2022/10/07 07:17:12;;;;;;;33.45;17.25;;;;;;;;;;5057360;28;20044;-89
2022/10/07 07:19:39;;;;;;;24.30;8.93;;;;;;;;;;5057134;28;20056;-90
2022/10/07 07:22:07;;;;;;;25.25;8.23;;;;;;;;;;5056998;28;20055;-89
2022/10/07 07:24:34;;;;;;;31.38;7.72;;;;;;;;;;5057146;28;20052;-89
2022/10/07 07:27:04;;;;;;;28.10;7.93;;;;;;;;;;5057451;28;20137;-88
2022/10/07 07:29:31;;;;;;;21.58;7.38;;;;;;;;;;5056982;28;20057;-87
2022/10/07 07:31:59;;;;;;;29.42;7.30;;;;;;;;;;5056955;28;20059;-86
2022/10/07 07:34:28;;;;;;;13.55;6.07;;;;;;;;;;5056607;28;20051;-88
2022/10/07 07:36:56;;;;;;;19.35;4.82;;;;;;;;;;5056619;28;20047;-88
2022/10/07 07:39:23;;;;;;;16.75;5.30;;;;;;;;;;5056371;28;20489;-87
2022/10/07 07:41:50;;;;;;;21.30;5.07;;;;;;;;;;5056571;28;20044;-88
2022/10/07 07:44:18;;;;;;;20.90;5.55;;;;;;;;;;5056242;28;20044;-87
2022/10/07 07:46:47;;;;;;;19.98;4.22;;;;;;;;;;5056229;28;20520;-87
2022/10/07 07:49:14;;;;;;;19.63;3.70;;;;;;;;;;5073714;28;20057;-86
2022/10/07 07:51:42;;;;;;;20.02;3.60;;;;;;;;;;5073638;28;20052;-87
2022/10/07 07:54:10;;;;;;;16.45;4.95;;;;;;;;;;5056284;28;20049;-86
2022/10/07 07:56:37;;;;;;;19.80;3.40;;;;;;;;;;5056011;28;20044;-86
2022/10/07 07:59:04;;;;;;;21.15;3.30;;;;;;;;;;5056365;28;20064;-86
2022/10/07 08:01:32;;;;;;;19.83;3.97;;;;;;;;;;5072679;28;20060;-85
2022/10/07 08:04:00;;;;;;;10.20;2.72;;;;;;;;;;5055712;28;20489;-87
2022/10/07 08:06:29;;;;;;;18.10;3.50;;;;;;;;;;5073716;28;20047;-87
2022/10/07 08:08:57;;;;;;;19.52;3.08;;;;;;;;;;5055973;28;20055;-87
2022/10/07 08:11:24;;;;;;;10.85;2.67;;;;;;;;;;5073821;28;20425;-86
2022/10/07 08:13:54;;;;;;;15.65;2.72;;;;;;;;;;5073655;28;20507;-87
2022/10/07 08:16:22;;;;;;;13.90;2.67;;;;;;;;;;5055833;28;20068;-87
2022/10/07 08:18:50;;;;;;;17.88;2.90;;;;;;;;;;5073708;28;20280;-87
2022/10/07 08:21:18;;;;;;;28.75;3.53;;;;;;;;;;5056354;28;20055;-87
2022/10/07 08:23:48;;;;;;;15.35;3.25;;;;;;;;;;5055949;28;20509;-88
2022/10/07 08:26:15;;;;;;;14.93;3.50;;;;;;;;;;5056027;28;20055;-87
2022/10/07 08:28:43;;;;;;;15.38;4.85;;;;;;;;;;5055677;28;20048;-88
2022/10/07 08:31:11;;;;;;;9.98;3.97;;;;;;;;;;5056138;28;20040;-88
2022/10/07 08:33:39;;;;;;;11.77;3.08;;;;;;;;;;5073490;28;20063;-88
2022/10/07 08:36:08;;;;;;;9.50;3.58;;;;;;;;;;5055495;28;20053;-88
2022/10/07 08:38:36;;;;;;;18.48;7.97;;;;;;;;;;5055936;28;20051;-88
2022/10/07 08:41:09;;;;;;;15.88;5.07;;;;;;;;;;5073460;28;20048;-88
2022/10/07 08:43:46;;;;;;;15.50;4.78;;;;;;;;;;5055996;28;20475;-87
2022/10/07 08:46:15;;;;;;;9.23;3.83;;;;;;;;;;5073214;28;20060;-88
2022/10/07 08:48:44;;;;;;;19.15;5.75;;;;;;;;;;5055564;28;20083;-88
2022/10/07 08:51:24;;;;;;;20.33;5.40;;;;;;;;;;5055804;28;20385;-88
2022/10/07 08:53:53;;;;;;;11.52;4.95;;;;;;;;;;5055572;28;20489;-88
2022/10/07 08:56:22;;;;;;;18.88;6.22;;;;;;;;;;5073436;28;20078;-88
2022/10/07 08:59:08;;;;;;;18.30;5.28;;;;;;;;;;5055564;28;20416;-89
2022/10/07 09:01:42;;;;;;;21.30;7.05;;;;;;;;;;5055495;28;20048;-89
2022/10/07 09:04:19;;;;;;;13.13;4.28;;;;;;;;;;5073306;28;20420;-88
2022/10/07 09:07:07;;;;;;;12.32;3.75;;;;;;;;;;5055765;28;20068;-88
2022/10/07 09:09:37;;;;;;;8.02;3.25;;;;;;;;;;5063117;28;20072;-88
2022/10/07 09:12:07;;;;;;;15.40;3.90;;;;;;;;;;5073173;28;20492;-88
2022/10/07 09:14:37;;;;;;;13.57;6.53;;;;;;;;;;5055981;28;20393;-88
2022/10/07 09:17:16;;;;;;;18.75;6.03;;;;;;;;;;5055651;28;20052;-89
2022/10/07 09:19:48;;;;;;;14.73;6.80;;;;;;;;;;5073116;28;20135;-91
2022/10/07 09:22:20;;;;;;;18.85;5.70;;;;;;;;;;5055479;28;20050;-91
2022/10/07 09:24:48;;;;;;;12.35;4.65;;;;;;;;;;5073786;28;20051;-88
2022/10/07 09:27:21;;;;;;;12.38;3.47;;;;;;;;;;5059073;28;20052;-88
2022/10/07 09:29:50;;;;;;;10.05;3.20;;;;;;;;;;5059338;28;20055;-89
2022/10/07 09:32:18;;;;;;;10.40;2.13;;;;;;;;;;5059494;28;20079;-89
2022/10/07 09:34:45;;;;;;;7.38;2.50;;;;;;;;;;5076529;28;20049;-88
2022/10/07 09:37:18;;;;;;;7.40;2.60;;;;;;;;;;5059181;28;20048;-89
2022/10/07 09:39:46;;;;;;;4.97;1.60;;;;;;;;;;5076667;28;20052;-88
2022/10/07 09:42:27;;;;;;;5.53;2.13;;;;;;;;;;5076667;28;20058;-87
2022/10/07 09:44:55;;;;;;;5.43;2.08;;;;;;;;;;5058465;28;20059;-88
2022/10/07 09:47:23;;;;;;;6.85;1.85;;;;;;;;;;5058824;28;20056;-89
2022/10/07 09:49:55;;;;;;;4.50;1.98;;;;;;;;;;5059262;28;20064;-88
2022/10/07 09:52:24;;;;;;;4.25;1.67;;;;;;;;;;5058740;28;20484;-89
2022/10/07 09:54:52;;;;;;;8.27;2.03;;;;;;;;;;5058243;28;20049;-88
2022/10/07 09:57:27;;;;;;;6.97;2.42;;;;;;;;;;5058684;28;20052;-89
2022/10/07 10:00:12;;;;;;;7.22;2.30;;;;;;;;;;5076099;28;20393;-88
2022/10/07 10:02:46;;;;;;;9.70;2.40;;;;;;;;;;5076431;28;20052;-88
2022/10/07 10:05:21;;;;;;;7.70;2.08;;;;;;;;;;5067910;28;20049;-87
2022/10/07 10:07:52;;;;;;;10.70;2.53;;;;;;;;;;5063642;28;20052;-88
2022/10/07 10:10:25;;;;;;;9.88;2.58;;;;;;;;;;5058654;28;20051;-87
2022/10/07 10:12:54;;;;;;;22.13;5.85;;;;;;;;;;5058347;28;20049;-88
2022/10/07 10:15:39;;;;;;;22.85;5.82;;;;;;;;;;5058356;28;20079;-88
2022/10/07 10:18:25;;;;;;;11.38;3.05;;;;;;;;;;5075741;28;20045;-87
2022/10/07 10:20:53;;;;;;;14.02;2.55;;;;;;;;;;5058274;28;20060;-88
2022/10/07 10:23:32;;;;;;;11.15;2.05;;;;;;;;;;5058334;28;20055;-89
2022/10/07 10:26:26;;;;;;;12.07;3.33;;;;;;;;;;5058216;28;20060;-88
2022/10/07 10:29:05;;;;;;;8.32;2.20;;;;;;;;;;5058997;28;20045;-86
2022/10/07 10:31:34;;;;;;;13.32;3.40;;;;;;;;;;5058149;28;20049;-87
2022/10/07 10:34:01;;;;;;;15.75;2.38;;;;;;;;;;5057816;28;20131;-87
2022/10/07 10:36:31;;;;;;;21.05;11.35;;;;;;;;;;5056489;28;20045;-87
2022/10/07 10:39:24;;;;;;;17.42;6.15;;;;;;;;;;5057701;28;20048;-88
2022/10/07 10:41:53;;;;;;;18.45;5.93;;;;;;;;;;5057474;28;20052;-87
2022/10/07 10:44:29;;;;;;;6.05;1.63;;;;;;;;;;5074720;28;20258;-86
2022/10/07 10:47:00;;;;;;;7.10;1.15;;;;;;;;;;5057345;28;20055;-86
2022/10/07 10:49:46;;;;;;;6.60;0.73;;;;;;;;;;5075012;28;20048;-86
2022/10/07 10:52:31;;;;;;;2.78;0.77;;;;;;;;;;5057099;28;20044;-86
2022/10/07 10:54:58;;;;;;;4.60;0.70;;;;;;;;;;5074676;28;20040;-87
2022/10/07 10:57:40;;;;;;;7.00;1.10;;;;;;;;;;5057305;28;20420;-86
2022/10/07 11:00:08;;;;;;;4.68;0.65;;;;;;;;;;5057125;28;20048;-86
2022/10/07 11:02:38;;;;;;;4.05;0.60;;;;;;;;;;5075039;28;20155;-86
2022/10/07 11:05:08;;;;;;;6.10;1.13;;;;;;;;;;5074472;28;20091;-86
2022/10/07 11:07:47;;;;;;;3.85;0.90;;;;;;;;;;5057647;28;20101;-87
2022/10/07 11:10:17;;;;;;;4.68;1.00;;;;;;;;;;5056961;28;20133;-87
2022/10/07 11:12:47;;;;;;;1.55;0.80;;;;;;;;;;5074548;28;20044;-85
2022/10/07 11:15:17;;;;;;;3.97;0.77;;;;;;;;;;5056381;28;20049;-86
2022/10/07 11:17:48;;;;;;;3.15;0.93;;;;;;;;;;5074470;28;20135;-86
2022/10/07 11:20:30;;;;;;;6.32;0.90;;;;;;;;;;5057002;28;20404;-86
2022/10/07 11:23:00;;;;;;;5.00;1.20;;;;;;;;;;5074794;28;20048;-86
2022/10/07 11:25:31;;;;;;;6.22;1.60;;;;;;;;;;5056736;28;20444;-85
2022/10/07 11:28:02;;;;;;;4.15;0.80;;;;;;;;;;5074373;28;20128;-86
2022/10/07 11:30:36;;;;;;;3.83;0.70;;;;;;;;;;5056813;28;20044;-87
2022/10/07 11:33:06;;;;;;;7.60;1.08;;;;;;;;;;5056452;28;20045;-86
2022/10/07 11:35:42;;;;;;;7.65;1.00;;;;;;;;;;5057421;28;20055;-85
2022/10/07 11:38:12;;;;;;;3.80;0.90;;;;;;;;;;5056620;28;20040;-86
2022/10/07 11:40:42;;;;;;;3.80;1.30;;;;;;;;;;5075323;28;20135;-86
2022/10/07 11:43:16;;;;;;;7.68;1.45;;;;;;;;;;5073686;28;20079;-85
2022/10/07 11:45:51;;;;;;;5.88;1.10;;;;;;;;;;5056077;28;20053;-85
2022/10/07 11:48:21;;;;;;;11.95;1.02;;;;;;;;;;5056259;28;20049;-86
2022/10/07 11:50:53;;;;;;;8.45;1.02;;;;;;;;;;5073872;28;20135;-86
2022/10/07 11:53:23;;;;;;;4.63;1.03;;;;;;;;;;5073622;28;20135;-85
2022/10/07 11:55:59;;;;;;;3.45;0.90;;;;;;;;;;5073564;28;20045;-86
2022/10/07 11:58:31;;;;;;;1.33;0.70;;;;;;;;;;5056025;28;20048;-87
2022/10/07 12:01:17;;;;;;;8.07;1.20;;;;;;;;;;5055906;28;20071;-85
2022/10/07 12:03:46;;;;;;;2.58;0.80;;;;;;;;;;5055699;28;20101;-87
2022/10/07 12:06:13;;;;;;;6.05;1.20;;;;;;;;;;5055871;28;20063;-86
2022/10/07 12:08:42;;;;;;;5.60;1.08;;;;;;;;;;5055645;28;20127;-85
2022/10/07 12:11:12;;;;;;;6.78;1.50;;;;;;;;;;5073579;28;20059;-86
2022/10/07 12:13:39;;;;;;;4.00;1.10;;;;;;;;;;5055922;28;20056;-86
2022/10/07 12:16:24;;;;;;;1.83;0.77;;;;;;;;;;5073473;28;20052;-86
2022/10/07 12:19:07;;;;;;;1.85;0.80;;;;;;;;;;5073448;28;20056;-85
2022/10/07 12:21:56;;;;;;;7.90;0.90;;;;;;;;;;5073652;28;20114;-87
2022/10/07 12:24:23;;;;;;;4.60;0.93;;;;;;;;;;5055579;28;20170;-87
2022/10/07 12:26:51;;;;;;;5.07;1.30;;;;;;;;;;5055761;28;20048;-85
2022/10/07 12:29:21;;;;;;;7.55;1.08;;;;;;;;;;5055420;28;20426;-86
2022/10/07 12:31:48;;;;;;;4.90;1.30;;;;;;;;;;5073335;28;20056;-87
2022/10/07 12:34:33;;;;;;;4.50;0.73;;;;;;;;;;5073462;28;20040;-85
2022/10/07 12:37:19;;;;;;;5.85;1.00;;;;;;;;;;5055306;28;20053;-87
2022/10/07 12:39:46;;;;;;;14.10;1.52;;;;;;;;;;5072966;28;20436;-86
2022/10/07 12:42:14;;;;;;;9.07;1.42;;;;;;;;;;5073235;28;20497;-87
2022/10/07 12:44:51;;;;;;;4.53;1.20;;;;;;;;;;5072930;28;20045;-85
2022/10/07 12:47:22;;;;;;;2.95;0.65;;;;;;;;;;5055190;28;20055;-85
2022/10/07 12:49:50;;;;;;;5.43;0.90;;;;;;;;;;5073390;28;20051;-90
2022/10/07 12:52:21;;;;;;;4.45;1.13;;;;;;;;;;5055418;28;20056;-86
2022/10/07 12:55:02;;;;;;;4.07;0.98;;;;;;;;;;5055337;28;20044;-86
2022/10/07 12:57:34;;;;;;;3.28;0.95;;;;;;;;;;5055158;28;20063;-86
2022/10/07 13:00:06;;;;;;;6.25;1.30;;;;;;;;;;5073979;28;20055;-89
2022/10/07 13:02:51;;;;;;;4.25;1.00;;;;;;;;;;5059391;28;20052;-86
2022/10/07 13:05:42;;;;;;;1.77;1.00;;;;;;;;;;5059281;28;20055;-88
2022/10/07 13:08:24;;;;;;;2.95;1.00;;;;;;;;;;5059277;28;20404;-86
2022/10/07 13:10:55;;;;;;;2.50;0.80;;;;;;;;;;5059183;28;20049;-85
2022/10/07 13:13:33;;;;;;;4.13;1.20;;;;;;;;;;5059313;28;20056;-89
2022/10/07 13:16:08;;;;;;;3.53;1.48;;;;;;;;;;5059159;28;20049;-86
2022/10/07 13:18:40;;;;;;;2.85;1.23;;;;;;;;;;5059111;28;20041;-89
2022/10/07 13:21:21;;;;;;;3.78;1.35;;;;;;;;;;5060236;28;20059;-86
2022/10/07 13:23:50;;;;;;;3.80;1.42;;;;;;;;;;5059117;28;20049;-87
2022/10/07 13:26:18;;;;;;;6.18;1.10;;;;;;;;;;5059125;28;20075;-85
2022/10/07 13:28:54;;;;;;;8.98;2.00;;;;;;;;;;5060618;28;20045;-86
2022/10/07 13:31:23;;;;;;;3.30;1.27;;;;;;;;;;5059575;28;20048;-86
2022/10/07 13:33:51;;;;;;;4.15;0.90;;;;;;;;;;5058800;28;20044;-88
2022/10/07 13:36:20;;;;;;;2.60;1.13;;;;;;;;;;5058659;28;20059;-86
2022/10/07 13:38:49;;;;;;;7.68;1.30;;;;;;;;;;5058693;28;20048;-85
2022/10/07 13:41:21;;;;;;;3.15;0.93;;;;;;;;;;5058692;28;20055;-86
2022/10/07 13:43:52;;;;;;;3.63;1.10;;;;;;;;;;5076180;28;20514;-85
2022/10/07 13:46:25;;;;;;;114.45;9.93;;;;;;;;;;5076078;28;20091;-87
2022/10/07 13:48:55;;;;;;;7.50;1.27;;;;;;;;;;5058568;28;20420;-87
2022/10/07 13:51:31;;;;;;;5.90;1.40;;;;;;;;;;5058731;28;20048;-86
2022/10/07 13:53:59;;;;;;;4.75;1.30;;;;;;;;;;5075930;28;20489;-86
2022/10/07 13:56:39;;;;;;;16.33;2.25;;;;;;;;;;5058309;28;20074;-84
2022/10/07 13:59:06;;;;;;;4.22;1.42;;;;;;;;;;5058264;28;20397;-85
2022/10/07 14:01:36;;;;;;;3.90;1.17;;;;;;;;;;5057757;28;20405;-86
2022/10/07 14:04:23;;;;;;;5.60;1.30;;;;;;;;;;5058271;28;20072;-86
2022/10/07 14:06:52;;;;;;;;;;;;;;;;;;5058559;28;20048;-84
2022/10/07 14:09:21;;;;;;;14.77;3.08;;;;;;;;;;5060228;28;19920;-85
2022/10/07 14:11:52;;;;;;;4.30;1.40;;;;;;;;;;5075260;28;20041;-87
2022/10/07 14:14:20;;;;;;;10.80;1.65;;;;;;;;;;5075777;28;20102;-85
2022/10/07 14:16:49;;;;;;;10.20;1.17;;;;;;;;;;5057463;28;20052;-86
2022/10/07 14:19:21;;;;;;;12.07;1.58;;;;;;;;;;5075789;28;20053;-86
2022/10/07 14:21:48;;;;;;;18.52;2.33;;;;;;;;;;5057767;28;20041;-86
2022/10/07 14:24:19;;;;;;;3.47;1.60;;;;;;;;;;5057621;28;20063;-85
2022/10/07 14:26:46;;;;;;;7.50;1.55;;;;;;;;;;5075589;28;20398;-86
2022/10/07 14:29:28;;;;;;;5.13;1.85;;;;;;;;;;5057779;28;20052;-86
2022/10/07 14:35:18;;;;;;;2.45;1.13;;;;;;;;;;5013596;28;20046;-86
2022/10/07 14:37:46;;;;;;;9.93;4.13;;;;;;;;;;5071557;28;20047;-86
2022/10/07 14:40:17;;;;;;;13.35;6.97;;;;;;;;;;5075439;28;20060;-86
2022/10/07 14:42:45;;;;;;;5.40;3.05;;;;;;;;;;5075341;28;20059;-85
2022/10/07 14:45:16;;;;;;;8.60;1.80;;;;;;;;;;5074835;28;20056;-87
2022/10/07 14:47:44;;;;;;;11.27;2.10;;;;;;;;;;5057326;28;20127;-86
2022/10/07 14:50:12;;;;;;;6.15;1.50;;;;;;;;;;5057232;28;20049;-85
2022/10/07 14:52:42;;;;;;;3.60;1.30;;;;;;;;;;5057365;28;20386;-85
2022/10/07 14:55:23;;;;;;;23.67;4.70;;;;;;;;;;5057250;28;20048;-86
2022/10/07 14:57:50;;;;;;;9.32;3.60;;;;;;;;;;5074716;28;20049;-86
2022/10/07 15:00:22;;;;;;;6.63;1.38;;;;;;;;;;5074806;28;20048;-86
2022/10/07 15:02:49;;;;;;;6.88;1.88;;;;;;;;;;5057181;28;20041;-86
2022/10/07 15:05:17;;;;;;;6.55;1.23;;;;;;;;;;5057260;28;20051;-85
2022/10/07 15:07:45;;;;;;;4.30;1.63;;;;;;;;;;5057056;28;20084;-88